createdAt,value
2024-05-09T00:00:36.244Z,10.52
2024-05-09T00:01:36.265Z,11.00
2024-05-09T00:02:33.028Z,10.85
2024-05-09T00:03:29.889Z,11.02
2024-05-09T00:04:26.641Z,11.05
2024-05-09T00:05:23.574Z,11.05
2024-05-09T00:06:20.326Z,11.38
2024-05-09T00:07:17.100Z,10.88
2024-05-09T00:08:14.051Z,11.10
2024-05-09T00:09:10.914Z,11.43
2024-05-09T00:10:11.800Z,11.63
2024-05-09T00:11:16.474Z,11.23
2024-05-09T00:12:13.768Z,10.60
2024-05-09T00:13:11.246Z,11.25
2024-05-09T00:14:08.311Z,11.00
2024-05-09T00:15:05.530Z,10.82
2024-05-09T00:16:02.314Z,12.30
2024-05-09T00:16:59.041Z,10.43
2024-05-09T00:17:55.937Z,11.13
2024-05-09T00:18:52.773Z,10.93
2024-05-09T00:19:49.630Z,10.98
2024-05-09T00:20:46.444Z,10.73
2024-05-09T00:21:43.710Z,10.50
2024-05-09T00:22:40.413Z,11.18
2024-05-09T00:23:37.142Z,10.52
2024-05-09T00:24:33.860Z,10.77
2024-05-09T00:25:30.529Z,11.50
2024-05-09T00:26:27.367Z,10.63
2024-05-09T00:27:24.293Z,11.00
2024-05-09T00:28:21.160Z,11.40
2024-05-09T00:29:17.950Z,10.98
2024-05-09T00:30:23.995Z,9.80
2024-05-09T00:31:27.402Z,10.60
2024-05-09T00:32:24.264Z,10.10
2024-05-09T00:33:21.497Z,10.75
2024-05-09T00:34:18.556Z,10.15
2024-05-09T00:35:15.403Z,9.85
2024-05-09T00:36:12.140Z,10.15
2024-05-09T00:37:08.876Z,9.80
2024-05-09T00:38:05.840Z,9.60
2024-05-09T00:39:02.647Z,9.50
2024-05-09T00:39:59.355Z,9.77
2024-05-09T00:40:56.115Z,9.45
2024-05-09T00:41:52.849Z,9.48
2024-05-09T00:42:49.565Z,9.65
2024-05-09T00:43:46.321Z,8.52
2024-05-09T00:44:43.016Z,9.27
2024-05-09T00:45:39.693Z,9.68
2024-05-09T00:46:36.455Z,9.30
2024-05-09T00:47:34.285Z,8.98
2024-05-09T00:48:31.909Z,10.02
2024-05-09T00:49:29.208Z,8.93
2024-05-09T00:50:34.050Z,8.65
2024-05-09T00:51:33.612Z,8.18
2024-05-09T00:52:30.760Z,9.10
2024-05-09T00:53:28.157Z,8.82
2024-05-09T00:54:26.255Z,8.50
2024-05-09T00:55:24.032Z,8.60
2024-05-09T00:56:22.028Z,8.20
2024-05-09T00:57:18.849Z,8.13
2024-05-09T00:58:18.317Z,8.95
2024-05-09T00:59:15.903Z,8.65
2024-05-09T01:00:22.549Z,8.80
2024-05-09T01:01:28.375Z,8.63
2024-05-09T01:02:25.263Z,8.30
2024-05-09T01:03:22.600Z,8.73
2024-05-09T01:04:19.606Z,8.80
2024-05-09T01:05:16.495Z,8.32
2024-05-09T01:06:13.265Z,8.48
2024-05-09T01:07:11.276Z,8.40
2024-05-09T01:08:09.258Z,8.60
2024-05-09T01:09:06.368Z,8.63
2024-05-09T01:10:04.219Z,8.35
2024-05-09T01:11:02.375Z,8.35
2024-05-09T01:11:59.335Z,8.52
2024-05-09T01:12:56.137Z,9.95
2024-05-09T01:13:52.950Z,9.13
2024-05-09T01:14:49.666Z,9.00
2024-05-09T01:15:48.178Z,9.00
2024-05-09T01:16:45.143Z,8.70
2024-05-09T01:17:42.384Z,8.95
2024-05-09T01:18:39.645Z,8.63
2024-05-09T01:19:36.774Z,8.52
2024-05-09T01:20:41.037Z,9.43
2024-05-09T01:21:41.665Z,9.13
2024-05-09T01:22:39.430Z,8.63
2024-05-09T01:23:36.547Z,9.18
2024-05-09T01:24:33.672Z,9.70
2024-05-09T01:25:30.437Z,9.13
2024-05-09T01:26:27.175Z,9.10
2024-05-09T01:27:24.039Z,9.68
2024-05-09T01:28:20.743Z,9.20
2024-05-09T01:29:17.647Z,9.48
2024-05-09T01:30:17.460Z,8.95
2024-05-09T01:31:18.093Z,9.32
2024-05-09T01:32:14.939Z,8.52
2024-05-09T01:33:12.775Z,8.55
2024-05-09T01:34:10.162Z,9.02
2024-05-09T01:35:07.180Z,9.10
2024-05-09T01:36:04.137Z,8.60
2024-05-09T01:37:00.837Z,8.50
2024-05-09T01:37:57.605Z,8.73
2024-05-09T01:38:54.431Z,9.82
2024-05-09T01:39:51.287Z,9.30
2024-05-09T01:40:48.710Z,10.00
2024-05-09T01:41:45.424Z,9.07
2024-05-09T01:42:42.272Z,9.10
2024-05-09T01:43:39.001Z,9.93
2024-05-09T01:44:35.731Z,10.65
2024-05-09T01:45:32.441Z,9.38
2024-05-09T01:46:29.144Z,9.70
2024-05-09T01:47:26.084Z,10.10
2024-05-09T01:48:23.082Z,9.80
2024-05-09T01:49:20.052Z,10.43
2024-05-09T01:50:22.470Z,9.98
2024-05-09T01:51:25.559Z,8.98
2024-05-09T01:52:22.274Z,9.40
2024-05-09T01:53:19.074Z,10.27
2024-05-09T01:54:15.841Z,8.85
2024-05-09T01:55:12.557Z,9.70
2024-05-09T01:56:10.266Z,9.82
2024-05-09T01:57:07.007Z,9.05
2024-05-09T01:58:03.867Z,9.02
2024-05-09T01:59:01.980Z,9.25
2024-05-09T01:59:58.729Z,8.52
2024-05-09T02:00:55.571Z,8.77
2024-05-09T02:01:56.866Z,9.38
2024-05-09T02:02:54.714Z,9.43
2024-05-09T02:03:51.780Z,9.23
2024-05-09T02:04:50.063Z,9.27
2024-05-09T02:05:48.308Z,9.27
2024-05-09T02:06:45.226Z,8.95
2024-05-09T02:07:41.922Z,9.18
2024-05-09T02:08:38.783Z,10.00
2024-05-09T02:09:35.568Z,9.48
2024-05-09T02:10:33.408Z,10.20
2024-05-09T02:11:30.512Z,9.32
2024-05-09T02:12:27.252Z,8.25
2024-05-09T02:13:23.974Z,8.63
2024-05-09T02:14:20.908Z,8.32
2024-05-09T02:15:17.665Z,9.20
2024-05-09T02:16:14.618Z,8.80
2024-05-09T02:17:11.365Z,8.75
2024-05-09T02:18:09.164Z,8.63
2024-05-09T02:19:06.430Z,8.73
2024-05-09T02:20:03.690Z,8.48
2024-05-09T02:21:02.704Z,9.13
2024-05-09T02:21:59.445Z,8.18
2024-05-09T02:22:57.605Z,8.05
2024-05-09T02:23:54.418Z,8.23
2024-05-09T02:24:51.211Z,8.23
2024-05-09T02:25:47.946Z,8.85
2024-05-09T02:26:44.669Z,9.02
2024-05-09T02:27:42.359Z,8.52
2024-05-09T02:28:39.030Z,8.23
2024-05-09T02:29:35.768Z,7.85
2024-05-09T02:30:39.444Z,7.60
2024-05-09T02:31:38.265Z,8.23
2024-05-09T02:32:35.104Z,8.20
2024-05-09T02:33:32.167Z,8.32
2024-05-09T02:34:29.053Z,8.65
2024-05-09T02:35:26.863Z,8.73
2024-05-09T02:36:23.638Z,8.57
2024-05-09T02:37:20.342Z,8.10
2024-05-09T02:38:17.326Z,8.30
2024-05-09T02:39:14.052Z,8.77
2024-05-09T02:40:14.724Z,7.70
2024-05-09T02:41:14.846Z,7.60
2024-05-09T02:42:11.587Z,8.68
2024-05-09T02:43:10.287Z,8.90
2024-05-09T02:44:08.133Z,8.88
2024-05-09T02:45:05.365Z,9.05
2024-05-09T02:46:02.029Z,8.75
2024-05-09T02:46:58.737Z,9.35
2024-05-09T02:47:55.707Z,8.75
2024-05-09T02:48:52.646Z,8.25
2024-05-09T02:49:49.401Z,8.63
2024-05-09T02:50:46.272Z,8.98
2024-05-09T02:51:43.029Z,8.50
2024-05-09T02:52:39.739Z,8.60
2024-05-09T02:53:36.456Z,8.43
2024-05-09T02:54:33.198Z,7.45
2024-05-09T02:55:29.866Z,7.63
2024-05-09T02:56:26.662Z,6.93
2024-05-09T02:57:23.424Z,7.97
2024-05-09T02:58:20.149Z,8.18
2024-05-09T02:59:16.884Z,7.90
2024-05-09T03:00:19.058Z,7.93
2024-05-09T03:01:22.753Z,7.32
2024-05-09T03:02:19.731Z,7.15
2024-05-09T03:03:16.639Z,7.95
2024-05-09T03:04:13.569Z,7.70
2024-05-09T03:05:10.962Z,8.10
2024-05-09T03:06:07.715Z,8.50
2024-05-09T03:07:04.681Z,8.48
2024-05-09T03:08:01.537Z,8.10
2024-05-09T03:08:58.403Z,8.60
2024-05-09T03:09:55.089Z,8.68
2024-05-09T03:10:51.826Z,8.27
2024-05-09T03:11:48.704Z,7.97
2024-05-09T03:12:45.525Z,8.45
2024-05-09T03:13:42.215Z,8.85
2024-05-09T03:14:38.895Z,8.65
2024-05-09T03:15:35.799Z,8.73
2024-05-09T03:16:37.976Z,8.30
2024-05-09T03:17:34.946Z,8.70
2024-05-09T03:18:31.923Z,9.15
2024-05-09T03:19:28.718Z,8.93
2024-05-09T03:20:32.517Z,8.75
2024-05-09T03:21:31.566Z,8.73
2024-05-09T03:22:28.693Z,10.77
2024-05-09T03:23:25.418Z,10.57
2024-05-09T03:24:22.137Z,11.40
2024-05-09T03:25:18.810Z,16.38
2024-05-09T03:26:17.472Z,17.95
2024-05-09T03:27:14.208Z,15.88
2024-05-09T03:28:11.431Z,11.70
2024-05-09T03:29:08.325Z,10.52
2024-05-09T03:30:07.441Z,10.25
2024-05-09T03:31:04.408Z,10.02
2024-05-09T03:32:01.246Z,9.73
2024-05-09T03:32:58.124Z,9.63
2024-05-09T03:33:54.999Z,10.15
2024-05-09T03:34:51.763Z,10.65
2024-05-09T03:35:49.311Z,10.07
2024-05-09T03:36:46.541Z,10.65
2024-05-09T03:37:43.229Z,10.65
2024-05-09T03:38:40.100Z,10.32
2024-05-09T03:39:36.796Z,10.35
2024-05-09T03:40:33.473Z,11.35
2024-05-09T03:41:30.204Z,10.25
2024-05-09T03:42:26.951Z,11.00
2024-05-09T03:43:24.091Z,9.90
2024-05-09T03:44:20.868Z,9.88
2024-05-09T03:45:17.614Z,10.50
2024-05-09T03:46:14.365Z,9.95
2024-05-09T03:47:11.173Z,9.50
2024-05-09T03:48:08.467Z,9.13
2024-05-09T03:49:05.755Z,8.75
2024-05-09T03:50:03.316Z,8.23
2024-05-09T03:51:01.279Z,7.53
2024-05-09T03:51:58.004Z,7.55
2024-05-09T03:52:55.142Z,7.53
2024-05-09T03:53:51.909Z,7.38
2024-05-09T03:54:48.576Z,8.23
2024-05-09T03:55:45.452Z,7.43
2024-05-09T03:56:42.299Z,7.82
2024-05-09T03:57:39.074Z,8.02
2024-05-09T03:58:35.797Z,8.13
2024-05-09T03:59:32.604Z,7.78
2024-05-09T04:00:36.905Z,7.72
2024-05-09T04:01:35.770Z,7.03
2024-05-09T04:02:32.715Z,7.75
2024-05-09T04:03:29.745Z,7.47
2024-05-09T04:04:26.549Z,7.25
2024-05-09T04:05:23.605Z,7.53
2024-05-09T04:06:23.014Z,7.07
2024-05-09T04:07:19.715Z,6.97
2024-05-09T04:08:18.990Z,6.80
2024-05-09T04:09:15.738Z,6.55
2024-05-09T04:10:21.015Z,6.70
2024-05-09T04:11:24.645Z,6.65
2024-05-09T04:12:21.496Z,6.18
2024-05-09T04:13:18.231Z,6.80
2024-05-09T04:14:15.036Z,5.90
2024-05-09T04:15:13.627Z,6.25
2024-05-09T04:16:11.386Z,7.40
2024-05-09T04:17:08.170Z,7.00
2024-05-09T04:18:05.387Z,6.97
2024-05-09T04:19:02.488Z,6.85
2024-05-09T04:19:59.299Z,6.93
2024-05-09T04:20:56.868Z,7.15
2024-05-09T04:21:53.621Z,6.72
2024-05-09T04:22:50.333Z,7.05
2024-05-09T04:23:47.114Z,5.85
2024-05-09T04:24:43.852Z,5.45
2024-05-09T04:25:42.066Z,5.30
2024-05-09T04:26:38.812Z,6.28
2024-05-09T04:27:35.550Z,5.80
2024-05-09T04:28:32.228Z,5.38
2024-05-09T04:29:29.055Z,5.40
2024-05-09T04:30:34.671Z,5.32
2024-05-09T04:31:38.708Z,5.22
2024-05-09T04:32:35.541Z,5.85
2024-05-09T04:33:32.911Z,5.20
2024-05-09T04:34:29.814Z,5.72
2024-05-09T04:35:26.732Z,5.72
2024-05-09T04:36:23.517Z,5.88
2024-05-09T04:37:20.221Z,5.93
2024-05-09T04:38:16.955Z,5.70
2024-05-09T04:39:13.674Z,6.18
2024-05-09T04:40:20.516Z,5.95
2024-05-09T04:41:21.048Z,6.00
2024-05-09T04:42:17.800Z,6.15
2024-05-09T04:43:17.362Z,6.28
2024-05-09T04:44:14.340Z,6.05
2024-05-09T04:45:11.048Z,6.30
2024-05-09T04:46:07.728Z,6.35
2024-05-09T04:47:04.702Z,6.85
2024-05-09T04:48:02.166Z,7.22
2024-05-09T04:48:59.268Z,7.28
2024-05-09T04:49:56.070Z,7.60
2024-05-09T04:50:52.933Z,7.65
2024-05-09T04:51:49.681Z,7.75
2024-05-09T04:52:46.483Z,7.00
2024-05-09T04:53:43.233Z,7.47
2024-05-09T04:54:39.980Z,7.22
2024-05-09T04:55:36.895Z,7.18
2024-05-09T04:56:33.965Z,7.45
2024-05-09T04:57:30.765Z,7.50
2024-05-09T04:58:27.466Z,6.78
2024-05-09T04:59:24.380Z,6.70
2024-05-09T05:00:28.936Z,6.80
2024-05-09T05:01:32.219Z,7.53
2024-05-09T05:02:29.003Z,7.50
2024-05-09T05:03:25.922Z,7.82
2024-05-09T05:04:22.806Z,8.02
2024-05-09T05:05:19.756Z,7.85
2024-05-09T05:06:16.539Z,8.27
2024-05-09T05:07:13.276Z,8.65
2024-05-09T05:08:13.790Z,8.82
2024-05-09T05:09:10.912Z,8.40
2024-05-09T05:10:11.839Z,8.43
2024-05-09T05:11:14.537Z,8.30
2024-05-09T05:12:31.317Z,8.82
2024-05-09T05:13:32.167Z,8.10
2024-05-09T05:14:29.111Z,8.02
2024-05-09T05:15:25.930Z,8.18
2024-05-09T05:16:22.635Z,8.07
2024-05-09T05:17:19.520Z,8.30
2024-05-09T05:18:16.820Z,8.27
2024-05-09T05:19:16.924Z,8.43
2024-05-09T05:20:17.962Z,8.40
2024-05-09T05:21:20.988Z,7.43
2024-05-09T05:22:17.871Z,7.68
2024-05-09T05:23:16.499Z,7.75
2024-05-09T05:24:13.541Z,8.35
2024-05-09T05:25:10.501Z,7.72
2024-05-09T05:26:07.218Z,8.15
2024-05-09T05:27:04.150Z,8.10
2024-05-09T05:28:00.827Z,8.73
2024-05-09T05:28:57.605Z,8.45
2024-05-09T05:29:54.299Z,8.50
2024-05-09T05:30:51.049Z,7.97
2024-05-09T05:31:47.891Z,7.47
2024-05-09T05:32:44.856Z,6.90
2024-05-09T05:33:41.794Z,6.30
2024-05-09T05:34:38.568Z,6.93
2024-05-09T05:35:36.026Z,7.25
2024-05-09T05:36:32.673Z,7.10
2024-05-09T05:37:29.406Z,6.43
2024-05-09T05:38:28.218Z,6.07
2024-05-09T05:39:25.340Z,6.35
2024-05-09T05:40:28.619Z,6.18
2024-05-09T05:41:32.562Z,5.97
2024-05-09T05:42:29.344Z,5.82
2024-05-09T05:43:26.764Z,6.68
2024-05-09T05:44:23.531Z,6.25
2024-05-09T05:45:20.280Z,6.20
2024-05-09T05:46:16.975Z,6.10
2024-05-09T05:47:13.822Z,5.75
2024-05-09T05:48:10.959Z,5.13
2024-05-09T05:49:07.986Z,5.65
2024-05-09T05:50:09.359Z,5.97
2024-05-09T05:51:11.226Z,5.72
2024-05-09T05:52:07.973Z,5.97
2024-05-09T05:53:08.503Z,5.97
2024-05-09T05:54:05.775Z,5.45
2024-05-09T05:55:04.768Z,5.35
2024-05-09T05:56:01.910Z,5.47
2024-05-09T05:56:59.315Z,5.72
2024-05-09T05:57:56.044Z,5.63
2024-05-09T05:58:52.847Z,5.40
2024-05-09T05:59:49.610Z,5.40
2024-05-09T06:00:46.397Z,5.72
2024-05-09T06:01:43.163Z,6.07
2024-05-09T06:02:39.929Z,5.88
2024-05-09T06:03:36.849Z,5.85
2024-05-09T06:04:33.783Z,6.40
2024-05-09T06:05:30.540Z,5.75
2024-05-09T06:06:27.291Z,6.10
2024-05-09T06:07:24.004Z,6.38
2024-05-09T06:08:21.031Z,6.32
2024-05-09T06:09:17.791Z,6.47
2024-05-09T06:10:21.269Z,6.47
2024-05-09T06:11:22.463Z,6.28
2024-05-09T06:12:19.404Z,6.50
2024-05-09T06:13:16.224Z,6.40
2024-05-09T06:14:13.146Z,6.65
2024-05-09T06:15:09.846Z,6.40
2024-05-09T06:16:06.744Z,6.25
2024-05-09T06:17:06.694Z,6.70
2024-05-09T06:18:06.486Z,6.38
2024-05-09T06:19:03.760Z,6.70
2024-05-09T06:20:00.635Z,6.13
2024-05-09T06:20:57.430Z,6.20
2024-05-09T06:21:54.183Z,6.00
2024-05-09T06:22:50.940Z,6.60
2024-05-09T06:23:48.762Z,6.57
2024-05-09T06:24:45.649Z,6.00
2024-05-09T06:25:42.754Z,6.10
2024-05-09T06:26:43.101Z,5.88
2024-05-09T06:27:40.272Z,6.40
2024-05-09T06:28:37.013Z,6.10
2024-05-09T06:29:38.432Z,6.55
2024-05-09T06:30:42.140Z,5.63
2024-05-09T06:31:41.648Z,5.32
2024-05-09T06:32:38.587Z,5.03
2024-05-09T06:33:35.635Z,4.80
2024-05-09T06:34:32.851Z,4.70
2024-05-09T06:35:29.703Z,5.18
2024-05-09T06:36:26.427Z,5.32
2024-05-09T06:37:23.144Z,5.10
2024-05-09T06:38:19.856Z,4.60
2024-05-09T06:39:16.590Z,5.20
2024-05-09T06:40:17.341Z,4.78
2024-05-09T06:41:14.431Z,4.85
2024-05-09T06:42:11.128Z,5.38
2024-05-09T06:43:16.415Z,5.05
2024-05-09T06:44:15.235Z,5.88
2024-05-09T06:45:11.970Z,5.50
2024-05-09T06:46:08.698Z,6.28
2024-05-09T06:47:05.556Z,5.18
2024-05-09T06:48:05.026Z,5.38
2024-05-09T06:49:08.086Z,5.80
2024-05-09T06:50:08.345Z,5.43
2024-05-09T06:51:09.951Z,5.07
2024-05-09T06:52:06.747Z,5.20
2024-05-09T06:53:03.632Z,5.18
2024-05-09T06:54:00.364Z,5.55
2024-05-09T06:54:57.042Z,4.95
2024-05-09T06:55:53.882Z,5.60
2024-05-09T06:56:50.683Z,5.25
2024-05-09T06:57:47.385Z,5.40
2024-05-09T06:58:44.110Z,5.05
2024-05-09T06:59:40.835Z,5.63
2024-05-09T07:00:40.349Z,5.10
2024-05-09T07:01:38.542Z,5.38
2024-05-09T07:02:35.340Z,5.43
2024-05-09T07:03:32.831Z,5.13
2024-05-09T07:04:29.716Z,5.32
2024-05-09T07:05:26.736Z,5.00
2024-05-09T07:06:23.556Z,5.30
2024-05-09T07:07:20.319Z,5.30
2024-05-09T07:08:17.774Z,4.80
2024-05-09T07:09:14.625Z,5.25
2024-05-09T07:10:21.560Z,5.30
2024-05-09T07:11:22.433Z,5.40
2024-05-09T07:12:19.359Z,2.90
2024-05-09T07:13:16.343Z,2.47
2024-05-09T07:14:13.239Z,2.80
2024-05-09T07:15:09.972Z,2.08
2024-05-09T07:16:06.924Z,2.10
2024-05-09T07:17:04.054Z,1.77
2024-05-09T07:18:01.065Z,2.20
2024-05-09T07:18:58.242Z,2.25
2024-05-09T07:19:55.099Z,2.10
2024-05-09T07:20:51.975Z,1.98
2024-05-09T07:21:49.002Z,2.28
2024-05-09T07:22:45.699Z,2.03
2024-05-09T07:23:45.184Z,2.00
2024-05-09T07:24:42.853Z,1.70
2024-05-09T07:25:40.531Z,1.80
2024-05-09T07:26:37.300Z,2.03
2024-05-09T07:27:34.541Z,2.22
2024-05-09T07:28:31.317Z,1.90
2024-05-09T07:29:28.200Z,1.90
2024-05-09T07:30:32.683Z,2.17
2024-05-09T07:31:31.491Z,2.10
2024-05-09T07:32:28.386Z,1.75
2024-05-09T07:33:25.396Z,2.25
2024-05-09T07:34:22.485Z,2.00
2024-05-09T07:35:19.447Z,2.08
2024-05-09T07:36:16.244Z,1.77
2024-05-09T07:37:13.837Z,2.08
2024-05-09T07:38:10.655Z,2.00
2024-05-09T07:39:07.429Z,2.08
2024-05-09T07:40:07.473Z,2.05
2024-05-09T07:41:04.805Z,1.80
2024-05-09T07:42:01.508Z,1.83
2024-05-09T07:42:58.229Z,1.95
2024-05-09T07:43:54.954Z,2.30
2024-05-09T07:44:51.733Z,2.83
2024-05-09T07:45:53.279Z,2.60
2024-05-09T07:48:13.585Z,2.38
2024-05-09T07:49:44.645Z,2.70
2024-05-09T07:53:32.304Z,3.53
2024-05-09T07:53:47.896Z,3.35
2024-05-09T07:54:48.117Z,3.45
2024-05-09T07:55:45.078Z,3.33
2024-05-09T07:56:41.995Z,3.45
2024-05-09T07:57:38.791Z,3.35
2024-05-09T07:58:35.646Z,3.33
2024-05-09T07:59:36.086Z,3.67
2024-05-09T08:00:34.592Z,3.70
2024-05-09T08:01:31.629Z,3.70
2024-05-09T08:02:28.784Z,2.80
2024-05-09T08:03:25.666Z,3.85
2024-05-09T08:04:25.100Z,3.30
2024-05-09T08:05:23.264Z,2.58
2024-05-09T08:06:20.097Z,2.00
2024-05-09T08:07:17.875Z,2.38
2024-05-09T08:08:14.607Z,1.83
2024-05-09T08:09:16.730Z,2.10
2024-05-09T08:10:21.923Z,2.10
2024-05-09T08:11:21.598Z,2.15
2024-05-09T08:12:18.367Z,2.00
2024-05-09T08:13:15.146Z,2.25
2024-05-09T08:14:11.886Z,2.40
2024-05-09T08:15:08.593Z,2.15
2024-05-09T08:16:05.779Z,2.30
2024-05-09T08:17:02.601Z,2.53
2024-05-09T08:18:00.186Z,2.40
2024-05-09T08:18:57.143Z,2.50
2024-05-09T08:19:55.489Z,2.38
2024-05-09T08:20:52.356Z,2.50
2024-05-09T08:21:49.105Z,2.30
2024-05-09T08:22:46.350Z,2.58
2024-05-09T08:23:43.027Z,2.00
2024-05-09T08:24:39.856Z,1.85
2024-05-09T08:25:36.625Z,2.03
2024-05-09T08:26:33.393Z,1.60
2024-05-09T08:27:30.972Z,1.90
2024-05-09T08:28:27.990Z,1.83
2024-05-09T08:29:24.813Z,1.52
2024-05-09T08:30:25.338Z,1.65
2024-05-09T08:31:29.474Z,1.70
2024-05-09T08:32:27.517Z,1.95
2024-05-09T08:33:24.454Z,1.92
2024-05-09T08:34:21.332Z,1.98
2024-05-09T08:35:18.073Z,1.80
2024-05-09T08:36:15.136Z,2.20
2024-05-09T08:37:19.420Z,1.80
2024-05-09T08:38:18.737Z,1.98
2024-05-09T08:39:15.441Z,1.83
2024-05-09T08:40:23.482Z,1.90
2024-05-09T08:41:24.995Z,1.88
2024-05-09T08:42:23.413Z,1.90
2024-05-09T08:43:20.745Z,2.38
2024-05-09T08:44:21.169Z,1.80
2024-05-09T08:45:18.562Z,2.13
2024-05-09T08:46:15.748Z,2.08
2024-05-09T08:47:12.597Z,2.90
2024-05-09T08:48:12.050Z,2.42
2024-05-09T08:49:09.297Z,2.40
2024-05-09T08:50:13.560Z,2.83
2024-05-09T08:51:14.455Z,2.20
2024-05-09T08:52:11.213Z,1.80
2024-05-09T08:53:08.771Z,1.60
2024-05-09T08:54:05.771Z,1.60
2024-05-09T08:55:03.362Z,1.67
2024-05-09T08:56:02.489Z,1.73
2024-05-09T08:57:00.593Z,1.50
2024-05-09T08:57:58.333Z,1.70
2024-05-09T08:58:59.076Z,1.60
2024-05-09T08:59:59.707Z,1.80
2024-05-09T09:00:57.622Z,1.60
2024-05-09T09:01:55.481Z,1.20
2024-05-09T09:02:52.361Z,1.42
2024-05-09T09:03:50.390Z,1.30
2024-05-09T09:05:11.408Z,1.42
2024-05-09T09:06:14.640Z,1.50
2024-05-09T09:07:11.950Z,1.60
2024-05-09T09:08:08.978Z,1.55
2024-05-09T09:09:05.999Z,1.50
2024-05-09T09:10:04.077Z,1.50
2024-05-09T09:11:02.986Z,1.40
2024-05-09T09:12:00.797Z,1.40
2024-05-09T09:13:03.848Z,1.50
2024-05-09T09:14:00.642Z,1.60
2024-05-09T09:14:57.334Z,1.42
2024-05-09T09:15:57.917Z,1.33
2024-05-09T09:16:56.570Z,1.48
2024-05-09T09:17:58.409Z,1.38
2024-05-09T09:18:57.874Z,1.45
2024-05-09T09:19:54.782Z,1.45
2024-05-09T09:20:51.672Z,1.30
2024-05-09T09:21:48.507Z,1.33
2024-05-09T09:22:45.373Z,1.60
2024-05-09T09:23:42.055Z,1.70
2024-05-09T09:24:38.855Z,1.38
2024-05-09T09:25:35.724Z,1.65
2024-05-09T09:26:32.658Z,1.45
2024-05-09T09:27:29.556Z,1.33
2024-05-09T09:28:26.275Z,1.60
2024-05-09T09:29:22.977Z,1.40
2024-05-09T09:30:31.681Z,1.40
2024-05-09T09:31:33.620Z,1.42
2024-05-09T09:32:30.499Z,1.55
2024-05-09T09:33:31.506Z,1.27
2024-05-09T09:34:28.980Z,1.60
2024-05-09T09:35:25.849Z,1.35
2024-05-09T09:36:22.638Z,1.40
2024-05-09T09:37:23.428Z,1.50
2024-05-09T09:38:23.101Z,1.50
2024-05-09T09:39:22.944Z,1.60
2024-05-09T09:40:30.982Z,1.60
2024-05-09T09:41:30.668Z,1.63
2024-05-09T09:42:31.694Z,1.40
2024-05-09T09:43:28.683Z,1.40
2024-05-09T09:44:29.604Z,1.60
2024-05-09T09:45:28.589Z,1.48
2024-05-09T09:46:27.642Z,1.50
2024-05-09T09:47:27.259Z,1.60
2024-05-09T09:48:24.964Z,1.67
2024-05-09T09:49:24.160Z,1.50
2024-05-09T09:50:27.891Z,1.50
2024-05-09T09:51:31.693Z,1.65
2024-05-09T09:52:28.807Z,1.50
2024-05-09T09:53:28.137Z,1.60
2024-05-09T09:54:25.042Z,1.60
2024-05-09T09:55:25.882Z,1.50
2024-05-09T09:56:23.882Z,1.23
2024-05-09T09:57:21.589Z,1.60
2024-05-09T09:58:18.432Z,1.60
2024-05-09T09:59:15.889Z,1.40
2024-05-09T10:00:17.326Z,1.80
2024-05-09T10:01:17.626Z,1.55
2024-05-09T10:02:14.717Z,1.80
2024-05-09T10:03:11.706Z,1.90
2024-05-09T10:04:10.020Z,1.58
2024-05-09T10:05:07.892Z,1.77
2024-05-09T10:06:06.936Z,1.80
2024-05-09T10:07:08.612Z,1.70
2024-05-09T10:08:07.544Z,1.50
2024-05-09T10:09:04.391Z,1.42
2024-05-09T10:10:01.173Z,1.50
2024-05-09T10:10:58.143Z,1.40
2024-05-09T10:11:59.958Z,1.65
2024-05-09T10:13:58.153Z,1.60
2024-05-09T10:14:54.918Z,1.75
2024-05-09T10:15:53.634Z,1.63
2024-05-09T10:16:50.677Z,1.70
2024-05-09T10:17:51.314Z,1.70
2024-05-09T10:18:48.364Z,1.80
2024-05-09T10:19:45.311Z,1.45
2024-05-09T10:20:42.608Z,1.60
2024-05-09T10:21:46.861Z,1.70
2024-05-09T10:22:50.494Z,1.70
2024-05-09T10:24:02.305Z,1.70
2024-05-09T10:25:05.774Z,1.98
2024-05-09T10:26:05.645Z,1.67
2024-05-09T10:27:04.358Z,1.63
2024-05-09T10:28:03.157Z,1.70
2024-05-09T10:29:02.645Z,1.60
2024-05-09T10:30:01.485Z,1.60
2024-05-09T10:31:07.204Z,1.70
2024-05-09T10:32:04.603Z,1.80
2024-05-09T10:33:01.365Z,1.60
2024-05-09T10:34:00.394Z,1.48
2024-05-09T10:35:07.695Z,1.70
2024-05-09T10:36:10.967Z,1.80
2024-05-09T10:37:07.868Z,1.75
2024-05-09T10:38:08.587Z,1.63
2024-05-09T10:39:05.495Z,1.60
2024-05-09T10:40:05.360Z,1.70
2024-05-09T10:41:04.868Z,1.73
2024-05-09T10:42:01.781Z,1.60
2024-05-09T10:43:02.582Z,1.80
2024-05-09T10:44:01.239Z,1.65
2024-05-09T10:44:59.042Z,1.65
2024-05-09T10:45:55.881Z,1.70
2024-05-09T10:46:54.891Z,1.63
2024-05-09T10:47:52.035Z,1.98
2024-05-09T10:48:49.251Z,1.90
2024-05-09T10:49:46.701Z,1.70
2024-05-09T10:50:45.948Z,1.70
2024-05-09T10:51:44.671Z,1.88
2024-05-09T10:52:41.430Z,1.42
2024-05-09T10:53:45.590Z,1.80
2024-05-09T10:54:42.317Z,1.67
2024-05-09T10:55:39.059Z,1.55
2024-05-09T10:56:35.810Z,1.70
2024-05-09T10:57:38.906Z,1.65
2024-05-09T10:58:35.648Z,1.60
2024-05-09T10:59:39.737Z,1.33
2024-05-09T11:00:37.726Z,1.67
2024-05-09T11:01:35.492Z,1.48
2024-05-09T11:02:32.442Z,1.50
2024-05-09T11:03:29.494Z,1.50
2024-05-09T11:04:27.784Z,1.50
2024-05-09T11:05:24.791Z,1.50
2024-05-09T11:06:21.678Z,1.42
2024-05-09T11:07:21.600Z,1.30
2024-05-09T11:08:23.084Z,1.40
2024-05-09T11:09:19.857Z,1.60
2024-05-09T11:10:24.401Z,1.60
2024-05-09T11:11:24.278Z,1.58
2024-05-09T11:12:23.541Z,1.52
2024-05-09T11:13:32.062Z,1.60
2024-05-09T11:14:29.037Z,1.48
2024-05-09T11:15:26.036Z,1.50
2024-05-09T11:16:22.921Z,1.60
2024-05-09T11:17:19.779Z,1.50
2024-05-09T11:18:28.134Z,1.42
2024-05-09T11:19:34.193Z,1.70
2024-05-09T11:20:35.664Z,1.55
2024-05-09T11:21:32.579Z,1.52
2024-05-09T11:22:33.422Z,1.50
2024-05-09T11:23:30.768Z,1.50
2024-05-09T11:24:29.359Z,1.58
2024-05-09T11:25:26.772Z,1.60
2024-05-09T11:26:25.423Z,1.40
2024-05-09T11:27:23.637Z,1.70
2024-05-09T11:28:21.577Z,1.35
2024-05-09T11:29:19.740Z,1.42
2024-05-09T11:30:26.689Z,1.20
2024-05-09T11:31:28.522Z,1.33
2024-05-09T11:32:29.942Z,1.23
2024-05-09T11:33:26.850Z,1.70
2024-05-09T11:34:23.741Z,1.40
2024-05-09T11:35:21.046Z,1.23
2024-05-09T11:36:17.882Z,1.38
2024-05-09T11:37:14.777Z,1.63
2024-05-09T11:38:12.131Z,1.50
2024-05-09T11:39:09.128Z,1.55
2024-05-09T11:40:11.470Z,1.50
2024-05-09T11:41:17.218Z,1.35
2024-05-09T11:42:14.386Z,1.33
2024-05-09T11:43:11.177Z,1.30
2024-05-09T11:44:07.964Z,1.30
2024-05-09T11:45:04.966Z,1.30
2024-05-09T11:46:03.604Z,1.25
2024-05-09T11:47:00.975Z,1.42
2024-05-09T11:47:57.820Z,1.50
2024-05-09T11:48:55.006Z,1.48
2024-05-09T11:49:52.919Z,1.60
2024-05-09T11:50:49.707Z,1.52
2024-05-09T11:51:46.520Z,1.60
2024-05-09T11:52:43.247Z,1.42
2024-05-09T11:53:39.946Z,1.40
2024-05-09T11:54:36.675Z,1.42
2024-05-09T11:55:36.603Z,1.60
2024-05-09T11:56:33.572Z,1.50
2024-05-09T11:57:30.376Z,1.38
2024-05-09T11:58:28.466Z,1.60
2024-05-09T11:59:25.255Z,1.50
2024-05-09T12:00:29.560Z,1.40
2024-05-09T12:01:33.270Z,1.50
2024-05-09T12:02:30.106Z,1.55
2024-05-09T12:03:27.054Z,1.52
2024-05-09T12:04:24.044Z,1.70
2024-05-09T12:05:21.107Z,1.25
2024-05-09T12:06:18.107Z,1.52
2024-05-09T12:07:15.034Z,1.60
2024-05-09T12:08:12.372Z,1.40
2024-05-09T12:09:09.262Z,1.50
2024-05-09T12:10:11.879Z,1.50
2024-05-09T12:11:13.942Z,1.52
2024-05-09T12:12:10.750Z,1.30
2024-05-09T12:13:07.886Z,1.40
2024-05-09T12:14:04.750Z,1.40
2024-05-09T12:15:01.479Z,1.20
2024-05-09T12:15:58.491Z,1.50
2024-05-09T12:16:55.253Z,1.90
2024-05-09T12:17:52.078Z,1.45
2024-05-09T12:18:48.996Z,1.30
2024-05-09T12:19:45.868Z,1.40
2024-05-09T12:20:42.975Z,1.40
2024-05-09T12:21:39.767Z,1.40
2024-05-09T12:22:36.465Z,1.48
2024-05-09T12:23:33.144Z,1.60
2024-05-09T12:24:30.657Z,1.50
2024-05-09T12:25:27.372Z,1.40
2024-05-09T12:26:24.153Z,1.50
2024-05-09T12:27:20.923Z,1.48
2024-05-09T12:28:18.062Z,1.30
2024-05-09T12:29:14.941Z,1.45
2024-05-09T12:30:17.226Z,1.40
2024-05-09T12:31:21.506Z,1.30
2024-05-09T12:32:18.335Z,1.38
2024-05-09T12:33:15.423Z,1.40
2024-05-09T12:34:12.338Z,1.55
2024-05-09T12:35:09.088Z,1.50
2024-05-09T12:36:06.173Z,1.42
2024-05-09T12:37:03.807Z,1.67
2024-05-09T12:38:00.672Z,1.50
2024-05-09T12:38:57.454Z,1.75
2024-05-09T12:39:54.203Z,1.50
2024-05-09T12:40:51.219Z,1.60
2024-05-09T12:41:48.011Z,1.35
2024-05-09T12:42:44.765Z,1.52
2024-05-09T12:43:41.477Z,1.50
2024-05-09T12:44:38.160Z,1.48
2024-05-09T12:45:34.962Z,1.58
2024-05-09T12:46:32.081Z,1.50
2024-05-09T12:47:28.946Z,1.40
2024-05-09T12:48:25.793Z,1.50
2024-05-09T12:49:24.472Z,1.70
2024-05-09T12:50:29.197Z,1.48
2024-05-09T12:51:31.094Z,1.70
2024-05-09T12:52:28.664Z,1.75
2024-05-09T12:53:25.370Z,1.25
2024-05-09T12:54:22.039Z,1.60
2024-05-09T12:55:18.878Z,1.50
2024-05-09T12:56:15.663Z,1.60
2024-05-09T12:57:12.469Z,1.55